sensor_id;sensor_type;location;lat;lon;timestamp;P1;durP1;ratioP1;P2;durP2;ratioP2
75634;SDS011;64227;48.724;9.104;2023-03-31T00:01:23;3.08;;;1.13;;
75634;SDS011;64227;48.724;9.104;2023-03-31T00:03:49;2.25;;;0.63;;
75634;SDS011;64227;48.724;9.104;2023-03-31T00:06:14;1.95;;;1.00;;
75634;SDS011;64227;48.724;9.104;2023-03-31T00:08:43;3.83;;;1.00;;
75634;SDS011;64227;48.724;9.104;2023-03-31T00:11:08;2.05;;;0.75;;
75634;SDS011;64227;48.724;9.104;2023-03-31T00:13:35;2.28;;;0.77;;
75634;SDS011;64227;48.724;9.104;2023-03-31T00:16:02;3.20;;;0.95;;
75634;SDS011;64227;48.724;9.104;2023-03-31T00:18:29;2.22;;;0.98;;
75634;SDS011;64227;48.724;9.104;2023-03-31T00:20:59;3.35;;;1.45;;
75634;SDS011;64227;48.724;9.104;2023-03-31T00:23:48;2.80;;;1.00;;
75634;SDS011;64227;48.724;9.104;2023-03-31T00:26:20;3.25;;;1.17;;
75634;SDS011;64227;48.724;9.104;2023-03-31T00:28:47;1.88;;;0.75;;
75634;SDS011;64227;48.724;9.104;2023-03-31T00:31:12;2.92;;;0.88;;
75634;SDS011;64227;48.724;9.104;2023-03-31T00:33:38;4.25;;;0.85;;
75634;SDS011;64227;48.724;9.104;2023-03-31T00:36:03;2.30;;;0.80;;
75634;SDS011;64227;48.724;9.104;2023-03-31T00:38:30;2.95;;;0.80;;
75634;SDS011;64227;48.724;9.104;2023-03-31T00:40:56;3.97;;;0.73;;
75634;SDS011;64227;48.724;9.104;2023-03-31T00:43:30;2.20;;;0.98;;
75634;SDS011;64227;48.724;9.104;2023-03-31T00:46:09;6.43;;;1.30;;
75634;SDS011;64227;48.724;9.104;2023-03-31T00:48:39;5.72;;;1.27;;
75634;SDS011;64227;48.724;9.104;2023-03-31T00:51:11;2.85;;;1.05;;
75634;SDS011;64227;48.724;9.104;2023-03-31T00:53:37;2.78;;;0.80;;
75634;SDS011;64227;48.724;9.104;2023-03-31T00:56:06;2.28;;;1.15;;
75634;SDS011;64227;48.724;9.104;2023-03-31T00:58:35;3.72;;;1.08;;
75634;SDS011;64227;48.724;9.104;2023-03-31T01:01:07;3.53;;;0.98;;
75634;SDS011;64227;48.724;9.104;2023-03-31T01:03:35;3.03;;;0.90;;
75634;SDS011;64227;48.724;9.104;2023-03-31T01:06:02;5.00;;;1.08;;
75634;SDS011;64227;48.724;9.104;2023-03-31T01:08:30;5.00;;;1.20;;
75634;SDS011;64227;48.724;9.104;2023-03-31T01:11:00;2.40;;;0.93;;
75634;SDS011;64227;48.724;9.104;2023-03-31T01:13:27;6.35;;;1.63;;
75634;SDS011;64227;48.724;9.104;2023-03-31T01:15:54;3.85;;;1.05;;
75634;SDS011;64227;48.724;9.104;2023-03-31T01:18:19;1.83;;;0.80;;
75634;SDS011;64227;48.724;9.104;2023-03-31T01:32:18;3.42;;;0.98;;
75634;SDS011;64227;48.724;9.104;2023-03-31T01:43:10;4.10;;;1.30;;
75634;SDS011;64227;48.724;9.104;2023-03-31T01:48:20;3.25;;;1.00;;
75634;SDS011;64227;48.724;9.104;2023-03-31T01:51:09;4.05;;;1.45;;
75634;SDS011;64227;48.724;9.104;2023-03-31T01:53:52;4.70;;;1.10;;
75634;SDS011;64227;48.724;9.104;2023-03-31T01:59:11;3.88;;;1.05;;
75634;SDS011;64227;48.724;9.104;2023-03-31T02:01:44;3.83;;;1.08;;
75634;SDS011;64227;48.724;9.104;2023-03-31T02:04:22;4.88;;;1.20;;
75634;SDS011;64227;48.724;9.104;2023-03-31T02:09:18;5.40;;;1.00;;
75634;SDS011;64227;48.724;9.104;2023-03-31T02:14:11;2.63;;;0.93;;
75634;SDS011;64227;48.724;9.104;2023-03-31T02:16:42;4.60;;;1.20;;
75634;SDS011;64227;48.724;9.104;2023-03-31T02:21:38;2.72;;;0.88;;
75634;SDS011;64227;48.724;9.104;2023-03-31T02:24:05;3.95;;;1.10;;
75634;SDS011;64227;48.724;9.104;2023-03-31T02:26:35;1.58;;;1.00;;
75634;SDS011;64227;48.724;9.104;2023-03-31T02:29:03;2.63;;;1.23;;
75634;SDS011;64227;48.724;9.104;2023-03-31T02:34:16;1.90;;;1.10;;
75634;SDS011;64227;48.724;9.104;2023-03-31T02:36:42;5.80;;;1.33;;
75634;SDS011;64227;48.724;9.104;2023-03-31T02:39:11;2.67;;;0.90;;
75634;SDS011;64227;48.724;9.104;2023-03-31T02:41:38;3.38;;;1.10;;
75634;SDS011;64227;48.724;9.104;2023-03-31T02:44:04;2.28;;;0.95;;
75634;SDS011;64227;48.724;9.104;2023-03-31T02:46:29;3.20;;;1.05;;
75634;SDS011;64227;48.724;9.104;2023-03-31T02:48:56;3.85;;;1.00;;
75634;SDS011;64227;48.724;9.104;2023-03-31T02:54:19;1.55;;;1.00;;
75634;SDS011;64227;48.724;9.104;2023-03-31T03:02:33;2.40;;;1.10;;
75634;SDS011;64227;48.724;9.104;2023-03-31T03:08:14;3.70;;;1.40;;
75634;SDS011;64227;48.724;9.104;2023-03-31T03:13:34;1.25;;;1.00;;
75634;SDS011;64227;48.724;9.104;2023-03-31T03:16:07;1.00;;;0.70;;
75634;SDS011;64227;48.724;9.104;2023-03-31T03:18:37;3.63;;;1.00;;
75634;SDS011;64227;48.724;9.104;2023-03-31T03:21:03;1.98;;;1.30;;
75634;SDS011;64227;48.724;9.104;2023-03-31T03:23:28;2.40;;;0.93;;
75634;SDS011;64227;48.724;9.104;2023-03-31T03:25:53;7.07;;;1.75;;
75634;SDS011;64227;48.724;9.104;2023-03-31T03:28:19;3.05;;;1.20;;
75634;SDS011;64227;48.724;9.104;2023-03-31T03:30:44;6.68;;;2.10;;
75634;SDS011;64227;48.724;9.104;2023-03-31T03:33:10;3.22;;;1.50;;
75634;SDS011;64227;48.724;9.104;2023-03-31T03:35:40;3.40;;;1.63;;
75634;SDS011;64227;48.724;9.104;2023-03-31T03:38:06;5.50;;;2.20;;
75634;SDS011;64227;48.724;9.104;2023-03-31T03:40:31;4.30;;;1.50;;
75634;SDS011;64227;48.724;9.104;2023-03-31T03:42:56;3.03;;;1.83;;
75634;SDS011;64227;48.724;9.104;2023-03-31T03:45:22;4.68;;;1.63;;
75634;SDS011;64227;48.724;9.104;2023-03-31T03:47:47;4.63;;;1.40;;
75634;SDS011;64227;48.724;9.104;2023-03-31T03:50:12;4.13;;;1.50;;
75634;SDS011;64227;48.724;9.104;2023-03-31T03:52:38;2.75;;;1.80;;
75634;SDS011;64227;48.724;9.104;2023-03-31T03:55:03;3.72;;;1.58;;
75634;SDS011;64227;48.724;9.104;2023-03-31T03:57:29;2.65;;;1.33;;
75634;SDS011;64227;48.724;9.104;2023-03-31T03:59:54;2.83;;;1.48;;
75634;SDS011;64227;48.724;9.104;2023-03-31T04:02:20;1.85;;;1.15;;
75634;SDS011;64227;48.724;9.104;2023-03-31T04:04:45;3.42;;;1.60;;
75634;SDS011;64227;48.724;9.104;2023-03-31T04:07:11;4.35;;;2.00;;
75634;SDS011;64227;48.724;9.104;2023-03-31T04:09:37;3.90;;;1.65;;
75634;SDS011;64227;48.724;9.104;2023-03-31T04:12:02;5.65;;;1.70;;
75634;SDS011;64227;48.724;9.104;2023-03-31T04:14:28;8.50;;;1.80;;
75634;SDS011;64227;48.724;9.104;2023-03-31T04:16:53;4.32;;;1.60;;
75634;SDS011;64227;48.724;9.104;2023-03-31T04:19:20;3.08;;;1.45;;
75634;SDS011;64227;48.724;9.104;2023-03-31T04:21:49;2.13;;;0.98;;
75634;SDS011;64227;48.724;9.104;2023-03-31T04:24:22;5.32;;;1.60;;
75634;SDS011;64227;48.724;9.104;2023-03-31T04:26:54;3.72;;;1.42;;
75634;SDS011;64227;48.724;9.104;2023-03-31T04:29:20;4.40;;;1.40;;
75634;SDS011;64227;48.724;9.104;2023-03-31T04:31:46;3.13;;;1.63;;
75634;SDS011;64227;48.724;9.104;2023-03-31T04:34:13;5.95;;;2.03;;
75634;SDS011;64227;48.724;9.104;2023-03-31T04:36:43;3.10;;;1.80;;
75634;SDS011;64227;48.724;9.104;2023-03-31T04:39:13;4.97;;;1.80;;
75634;SDS011;64227;48.724;9.104;2023-03-31T04:41:40;4.40;;;1.73;;
75634;SDS011;64227;48.724;9.104;2023-03-31T04:44:05;2.20;;;1.50;;
75634;SDS011;64227;48.724;9.104;2023-03-31T04:46:31;4.22;;;1.63;;
75634;SDS011;64227;48.724;9.104;2023-03-31T04:48:57;4.50;;;1.77;;
75634;SDS011;64227;48.724;9.104;2023-03-31T04:51:23;2.75;;;1.80;;
75634;SDS011;64227;48.724;9.104;2023-03-31T04:53:48;3.65;;;1.63;;
75634;SDS011;64227;48.724;9.104;2023-03-31T04:56:14;1.67;;;1.15;;
75634;SDS011;64227;48.724;9.104;2023-03-31T04:58:39;2.37;;;1.67;;
75634;SDS011;64227;48.724;9.104;2023-03-31T05:01:04;3.90;;;1.83;;
75634;SDS011;64227;48.724;9.104;2023-03-31T05:03:30;2.78;;;1.67;;
75634;SDS011;64227;48.724;9.104;2023-03-31T05:05:56;6.25;;;1.98;;
75634;SDS011;64227;48.724;9.104;2023-03-31T05:08:21;5.95;;;1.95;;
75634;SDS011;64227;48.724;9.104;2023-03-31T05:10:47;4.93;;;1.65;;
75634;SDS011;64227;48.724;9.104;2023-03-31T05:13:12;2.92;;;2.20;;
75634;SDS011;64227;48.724;9.104;2023-03-31T05:15:38;6.83;;;2.53;;
75634;SDS011;64227;48.724;9.104;2023-03-31T05:18:03;5.38;;;1.88;;
75634;SDS011;64227;48.724;9.104;2023-03-31T05:20:29;5.05;;;2.63;;
75634;SDS011;64227;48.724;9.104;2023-03-31T05:22:54;5.03;;;2.40;;
75634;SDS011;64227;48.724;9.104;2023-03-31T05:25:20;4.00;;;2.08;;
75634;SDS011;64227;48.724;9.104;2023-03-31T05:27:46;10.38;;;8.48;;
75634;SDS011;64227;48.724;9.104;2023-03-31T05:30:12;8.43;;;5.63;;
75634;SDS011;64227;48.724;9.104;2023-03-31T05:32:39;3.85;;;3.05;;
75634;SDS011;64227;48.724;9.104;2023-03-31T05:35:04;5.22;;;2.55;;
75634;SDS011;64227;48.724;9.104;2023-03-31T05:37:30;3.38;;;2.08;;
75634;SDS011;64227;48.724;9.104;2023-03-31T05:39:55;4.65;;;2.10;;
75634;SDS011;64227;48.724;9.104;2023-03-31T05:42:21;6.68;;;2.70;;
75634;SDS011;64227;48.724;9.104;2023-03-31T05:44:46;4.85;;;2.10;;
75634;SDS011;64227;48.724;9.104;2023-03-31T05:47:11;6.18;;;2.35;;
75634;SDS011;64227;48.724;9.104;2023-03-31T05:49:37;2.73;;;2.10;;
75634;SDS011;64227;48.724;9.104;2023-03-31T05:52:03;7.68;;;2.70;;
75634;SDS011;64227;48.724;9.104;2023-03-31T05:54:29;3.92;;;1.88;;
75634;SDS011;64227;48.724;9.104;2023-03-31T05:56:55;4.77;;;2.33;;
75634;SDS011;64227;48.724;9.104;2023-03-31T05:59:20;7.22;;;3.15;;
75634;SDS011;64227;48.724;9.104;2023-03-31T06:01:46;6.72;;;2.55;;
75634;SDS011;64227;48.724;9.104;2023-03-31T06:04:11;4.95;;;2.70;;
75634;SDS011;64227;48.724;9.104;2023-03-31T06:06:36;4.57;;;2.30;;
75634;SDS011;64227;48.724;9.104;2023-03-31T06:09:02;3.00;;;2.13;;
75634;SDS011;64227;48.724;9.104;2023-03-31T06:11:27;3.53;;;2.30;;
75634;SDS011;64227;48.724;9.104;2023-03-31T06:13:53;5.70;;;2.33;;
75634;SDS011;64227;48.724;9.104;2023-03-31T06:16:18;4.87;;;2.63;;
75634;SDS011;64227;48.724;9.104;2023-03-31T06:18:44;4.22;;;2.10;;
75634;SDS011;64227;48.724;9.104;2023-03-31T06:21:13;3.03;;;2.17;;
75634;SDS011;64227;48.724;9.104;2023-03-31T06:23:43;3.75;;;2.20;;
75634;SDS011;64227;48.724;9.104;2023-03-31T06:26:09;5.75;;;2.20;;
75634;SDS011;64227;48.724;9.104;2023-03-31T06:28:36;4.43;;;2.30;;
75634;SDS011;64227;48.724;9.104;2023-03-31T06:31:09;4.60;;;2.17;;
75634;SDS011;64227;48.724;9.104;2023-03-31T06:33:38;7.55;;;2.55;;
75634;SDS011;64227;48.724;9.104;2023-03-31T06:36:05;5.40;;;2.50;;
75634;SDS011;64227;48.724;9.104;2023-03-31T06:38:32;6.38;;;2.72;;
75634;SDS011;64227;48.724;9.104;2023-03-31T06:40:58;4.03;;;2.13;;
75634;SDS011;64227;48.724;9.104;2023-03-31T06:43:24;7.07;;;2.13;;
75634;SDS011;64227;48.724;9.104;2023-03-31T06:45:50;6.05;;;2.58;;
75634;SDS011;64227;48.724;9.104;2023-03-31T06:48:16;5.95;;;2.50;;
75634;SDS011;64227;48.724;9.104;2023-03-31T06:50:42;5.70;;;2.80;;
75634;SDS011;64227;48.724;9.104;2023-03-31T06:53:07;4.45;;;2.45;;
75634;SDS011;64227;48.724;9.104;2023-03-31T06:55:33;4.57;;;2.55;;
75634;SDS011;64227;48.724;9.104;2023-03-31T06:57:59;5.35;;;2.83;;
75634;SDS011;64227;48.724;9.104;2023-03-31T07:00:25;8.38;;;3.40;;
75634;SDS011;64227;48.724;9.104;2023-03-31T07:02:51;8.70;;;3.35;;
75634;SDS011;64227;48.724;9.104;2023-03-31T07:05:16;6.22;;;3.05;;
75634;SDS011;64227;48.724;9.104;2023-03-31T07:07:43;5.97;;;3.05;;
75634;SDS011;64227;48.724;9.104;2023-03-31T07:10:08;6.75;;;3.00;;
75634;SDS011;64227;48.724;9.104;2023-03-31T07:12:34;4.45;;;2.72;;
75634;SDS011;64227;48.724;9.104;2023-03-31T07:14:59;6.95;;;2.40;;
75634;SDS011;64227;48.724;9.104;2023-03-31T07:17:24;6.28;;;2.20;;
75634;SDS011;64227;48.724;9.104;2023-03-31T07:19:50;5.65;;;2.55;;
75634;SDS011;64227;48.724;9.104;2023-03-31T07:22:15;4.15;;;2.40;;
75634;SDS011;64227;48.724;9.104;2023-03-31T07:24:40;3.13;;;2.15;;
75634;SDS011;64227;48.724;9.104;2023-03-31T07:27:06;2.83;;;1.92;;
75634;SDS011;64227;48.724;9.104;2023-03-31T07:29:31;4.40;;;1.88;;
75634;SDS011;64227;48.724;9.104;2023-03-31T07:31:56;2.95;;;1.58;;
75634;SDS011;64227;48.724;9.104;2023-03-31T07:34:22;5.72;;;1.80;;
75634;SDS011;64227;48.724;9.104;2023-03-31T07:36:47;4.43;;;1.35;;
75634;SDS011;64227;48.724;9.104;2023-03-31T07:39:13;2.45;;;1.35;;
75634;SDS011;64227;48.724;9.104;2023-03-31T07:41:38;2.70;;;0.98;;
75634;SDS011;64227;48.724;9.104;2023-03-31T07:44:03;1.80;;;1.25;;
75634;SDS011;64227;48.724;9.104;2023-03-31T07:46:29;1.45;;;0.77;;
75634;SDS011;64227;48.724;9.104;2023-03-31T07:48:55;0.95;;;0.80;;
75634;SDS011;64227;48.724;9.104;2023-03-31T07:51:21;1.08;;;0.60;;
75634;SDS011;64227;48.724;9.104;2023-03-31T07:53:48;1.85;;;1.02;;
75634;SDS011;64227;48.724;9.104;2023-03-31T07:56:16;1.27;;;0.60;;
75634;SDS011;64227;48.724;9.104;2023-03-31T07:58:42;1.00;;;0.68;;
75634;SDS011;64227;48.724;9.104;2023-03-31T08:01:08;0.80;;;0.60;;
75634;SDS011;64227;48.724;9.104;2023-03-31T08:03:33;1.38;;;1.02;;
75634;SDS011;64227;48.724;9.104;2023-03-31T08:05:59;0.70;;;0.50;;
75634;SDS011;64227;48.724;9.104;2023-03-31T08:08:24;0.60;;;0.40;;
75634;SDS011;64227;48.724;9.104;2023-03-31T08:10:50;0.77;;;0.45;;
75634;SDS011;64227;48.724;9.104;2023-03-31T08:13:15;1.38;;;0.43;;
75634;SDS011;64227;48.724;9.104;2023-03-31T08:15:40;1.70;;;0.40;;
75634;SDS011;64227;48.724;9.104;2023-03-31T08:18:06;0.55;;;0.50;;
75634;SDS011;64227;48.724;9.104;2023-03-31T08:20:32;0.43;;;0.20;;
75634;SDS011;64227;48.724;9.104;2023-03-31T08:22:57;0.70;;;0.30;;
75634;SDS011;64227;48.724;9.104;2023-03-31T08:25:22;0.68;;;0.40;;
75634;SDS011;64227;48.724;9.104;2023-03-31T08:27:48;0.45;;;0.45;;
75634;SDS011;64227;48.724;9.104;2023-03-31T08:30:15;0.80;;;0.50;;
75634;SDS011;64227;48.724;9.104;2023-03-31T08:32:41;0.60;;;0.30;;
75634;SDS011;64227;48.724;9.104;2023-03-31T08:35:06;0.98;;;0.57;;
75634;SDS011;64227;48.724;9.104;2023-03-31T08:37:32;2.47;;;0.60;;
75634;SDS011;64227;48.724;9.104;2023-03-31T08:39:57;0.75;;;0.32;;
75634;SDS011;64227;48.724;9.104;2023-03-31T08:42:26;1.58;;;0.73;;
75634;SDS011;64227;48.724;9.104;2023-03-31T08:44:58;0.65;;;0.47;;
75634;SDS011;64227;48.724;9.104;2023-03-31T08:47:28;1.15;;;0.50;;
75634;SDS011;64227;48.724;9.104;2023-03-31T08:49:56;1.63;;;0.50;;
75634;SDS011;64227;48.724;9.104;2023-03-31T08:52:23;0.82;;;0.45;;
75634;SDS011;64227;48.724;9.104;2023-03-31T08:54:55;1.17;;;0.77;;
75634;SDS011;64227;48.724;9.104;2023-03-31T09:00:18;1.08;;;0.60;;
75634;SDS011;64227;48.724;9.104;2023-03-31T09:05:39;1.00;;;0.57;;
75634;SDS011;64227;48.724;9.104;2023-03-31T09:10:55;1.67;;;0.73;;
75634;SDS011;64227;48.724;9.104;2023-03-31T09:16:12;3.17;;;0.60;;
75634;SDS011;64227;48.724;9.104;2023-03-31T09:18:39;1.15;;;0.40;;
75634;SDS011;64227;48.724;9.104;2023-03-31T09:26:42;3.10;;;0.65;;
75634;SDS011;64227;48.724;9.104;2023-03-31T09:29:11;3.15;;;0.60;;
75634;SDS011;64227;48.724;9.104;2023-03-31T09:31:42;0.73;;;0.52;;
75634;SDS011;64227;48.724;9.104;2023-03-31T09:34:11;0.57;;;0.40;;
75634;SDS011;64227;48.724;9.104;2023-03-31T09:36:39;1.52;;;0.55;;
75634;SDS011;64227;48.724;9.104;2023-03-31T09:39:07;3.03;;;0.63;;
75634;SDS011;64227;48.724;9.104;2023-03-31T09:41:36;2.20;;;0.70;;
75634;SDS011;64227;48.724;9.104;2023-03-31T09:44:01;2.22;;;0.50;;
75634;SDS011;64227;48.724;9.104;2023-03-31T09:46:29;3.10;;;0.45;;
75634;SDS011;64227;48.724;9.104;2023-03-31T09:49:01;2.10;;;0.60;;
75634;SDS011;64227;48.724;9.104;2023-03-31T09:51:31;3.28;;;0.98;;
75634;SDS011;64227;48.724;9.104;2023-03-31T09:54:06;3.53;;;0.70;;
75634;SDS011;64227;48.724;9.104;2023-03-31T09:59:11;2.03;;;0.55;;
75634;SDS011;64227;48.724;9.104;2023-03-31T10:01:48;2.55;;;0.60;;
75634;SDS011;64227;48.724;9.104;2023-03-31T10:04:22;1.08;;;0.40;;
75634;SDS011;64227;48.724;9.104;2023-03-31T10:06:51;2.55;;;0.70;;
75634;SDS011;64227;48.724;9.104;2023-03-31T10:09:18;2.92;;;0.63;;
75634;SDS011;64227;48.724;9.104;2023-03-31T10:11:51;4.05;;;0.82;;
75634;SDS011;64227;48.724;9.104;2023-03-31T10:14:23;3.80;;;1.10;;
75634;SDS011;64227;48.724;9.104;2023-03-31T10:16:54;5.15;;;1.05;;
75634;SDS011;64227;48.724;9.104;2023-03-31T10:19:21;2.00;;;0.60;;
75634;SDS011;64227;48.724;9.104;2023-03-31T10:21:59;5.60;;;0.65;;
75634;SDS011;64227;48.724;9.104;2023-03-31T10:24:35;2.90;;;0.70;;
75634;SDS011;64227;48.724;9.104;2023-03-31T10:27:06;3.60;;;0.90;;
75634;SDS011;64227;48.724;9.104;2023-03-31T10:29:41;2.05;;;0.80;;
75634;SDS011;64227;48.724;9.104;2023-03-31T10:34:47;5.65;;;1.10;;
75634;SDS011;64227;48.724;9.104;2023-03-31T10:37:14;4.13;;;1.38;;
75634;SDS011;64227;48.724;9.104;2023-03-31T10:39:41;7.15;;;3.60;;
75634;SDS011;64227;48.724;9.104;2023-03-31T10:42:07;3.40;;;2.00;;
75634;SDS011;64227;48.724;9.104;2023-03-31T10:47:03;2.83;;;1.00;;
75634;SDS011;64227;48.724;9.104;2023-03-31T10:49:38;2.63;;;0.80;;
75634;SDS011;64227;48.724;9.104;2023-03-31T10:52:13;3.60;;;0.75;;
75634;SDS011;64227;48.724;9.104;2023-03-31T10:54:52;3.80;;;0.80;;
75634;SDS011;64227;48.724;9.104;2023-03-31T10:57:22;2.33;;;0.90;;
75634;SDS011;64227;48.724;9.104;2023-03-31T10:59:58;2.33;;;0.80;;
75634;SDS011;64227;48.724;9.104;2023-03-31T11:14:15;6.25;;;1.40;;
75634;SDS011;64227;48.724;9.104;2023-03-31T11:16:55;4.05;;;1.00;;
75634;SDS011;64227;48.724;9.104;2023-03-31T11:19:32;2.38;;;0.80;;
75634;SDS011;64227;48.724;9.104;2023-03-31T11:24:44;3.10;;;0.75;;
75634;SDS011;64227;48.724;9.104;2023-03-31T11:43:57;1.35;;;0.50;;
75634;SDS011;64227;48.724;9.104;2023-03-31T11:46:33;0.63;;;0.20;;
75634;SDS011;64227;48.724;9.104;2023-03-31T11:52:07;0.90;;;0.20;;
75634;SDS011;64227;48.724;9.104;2023-03-31T11:54:49;2.03;;;0.30;;
75634;SDS011;64227;48.724;9.104;2023-03-31T11:57:20;1.40;;;0.10;;
75634;SDS011;64227;48.724;9.104;2023-03-31T11:59:56;0.85;;;0.10;;
75634;SDS011;64227;48.724;9.104;2023-03-31T12:05:22;0.10;;;0.10;;
75634;SDS011;64227;48.724;9.104;2023-03-31T12:10:36;0.63;;;0.15;;
75634;SDS011;64227;48.724;9.104;2023-03-31T12:16:07;0.85;;;0.17;;
75634;SDS011;64227;48.724;9.104;2023-03-31T12:18:36;1.13;;;0.20;;
75634;SDS011;64227;48.724;9.104;2023-03-31T12:21:06;0.63;;;0.20;;
75634;SDS011;64227;48.724;9.104;2023-03-31T12:23:35;0.68;;;0.30;;
75634;SDS011;64227;48.724;9.104;2023-03-31T12:26:26;0.70;;;0.20;;
75634;SDS011;64227;48.724;9.104;2023-03-31T12:28:56;0.43;;;0.10;;
75634;SDS011;64227;48.724;9.104;2023-03-31T12:31:23;1.70;;;0.30;;
75634;SDS011;64227;48.724;9.104;2023-03-31T12:33:54;1.80;;;0.40;;
75634;SDS011;64227;48.724;9.104;2023-03-31T12:36:29;1.27;;;0.32;;
75634;SDS011;64227;48.724;9.104;2023-03-31T12:42:21;0.65;;;0.28;;
75634;SDS011;64227;48.724;9.104;2023-03-31T12:50:12;1.45;;;0.40;;
75634;SDS011;64227;48.724;9.104;2023-03-31T12:52:44;0.30;;;0.20;;
75634;SDS011;64227;48.724;9.104;2023-03-31T12:55:27;2.97;;;0.40;;
75634;SDS011;64227;48.724;9.104;2023-03-31T13:01:09;1.92;;;0.47;;
75634;SDS011;64227;48.724;9.104;2023-03-31T13:08:59;1.77;;;0.60;;
75634;SDS011;64227;48.724;9.104;2023-03-31T13:11:36;2.80;;;0.60;;
75634;SDS011;64227;48.724;9.104;2023-03-31T13:14:19;2.63;;;0.85;;
75634;SDS011;64227;48.724;9.104;2023-03-31T13:16:50;1.65;;;0.80;;
75634;SDS011;64227;48.724;9.104;2023-03-31T13:19:34;1.52;;;0.60;;
75634;SDS011;64227;48.724;9.104;2023-03-31T13:22:00;3.03;;;0.68;;
75634;SDS011;64227;48.724;9.104;2023-03-31T13:24:27;3.45;;;0.60;;
75634;SDS011;64227;48.724;9.104;2023-03-31T13:26:55;2.75;;;0.95;;
75634;SDS011;64227;48.724;9.104;2023-03-31T13:29:24;4.10;;;0.60;;
75634;SDS011;64227;48.724;9.104;2023-03-31T13:34:35;2.72;;;0.30;;
75634;SDS011;64227;48.724;9.104;2023-03-31T13:42:44;0.30;;;0.13;;
75634;SDS011;64227;48.724;9.104;2023-03-31T13:51:21;0.28;;;0.10;;
75634;SDS011;64227;48.724;9.104;2023-03-31T13:53:58;1.90;;;0.30;;
75634;SDS011;64227;48.724;9.104;2023-03-31T14:08:11;1.33;;;0.20;;
75634;SDS011;64227;48.724;9.104;2023-03-31T14:10:41;1.23;;;0.15;;
75634;SDS011;64227;48.724;9.104;2023-03-31T14:13:11;0.90;;;0.20;;
75634;SDS011;64227;48.724;9.104;2023-03-31T14:15:39;0.05;;;0.00;;
75634;SDS011;64227;48.724;9.104;2023-03-31T14:18:14;0.77;;;0.20;;
75634;SDS011;64227;48.724;9.104;2023-03-31T14:23:24;0.10;;;0.10;;
75634;SDS011;64227;48.724;9.104;2023-03-31T14:26:06;0.35;;;0.10;;
75634;SDS011;64227;48.724;9.104;2023-03-31T14:28:40;0.47;;;0.20;;
75634;SDS011;64227;48.724;9.104;2023-03-31T14:31:25;0.98;;;0.15;;
75634;SDS011;64227;48.724;9.104;2023-03-31T14:39:26;0.40;;;0.20;;
75634;SDS011;64227;48.724;9.104;2023-03-31T14:41:55;0.70;;;0.10;;
75634;SDS011;64227;48.724;9.104;2023-03-31T14:44:24;0.45;;;0.10;;
75634;SDS011;64227;48.724;9.104;2023-03-31T14:46:49;0.95;;;0.32;;
75634;SDS011;64227;48.724;9.104;2023-03-31T14:49:48;0.82;;;0.30;;
75634;SDS011;64227;48.724;9.104;2023-03-31T14:52:17;1.98;;;0.28;;
75634;SDS011;64227;48.724;9.104;2023-03-31T14:54:45;0.73;;;0.30;;
75634;SDS011;64227;48.724;9.104;2023-03-31T14:57:18;0.35;;;0.13;;
75634;SDS011;64227;48.724;9.104;2023-03-31T14:59:45;0.73;;;0.28;;
75634;SDS011;64227;48.724;9.104;2023-03-31T15:02:14;1.08;;;0.20;;
75634;SDS011;64227;48.724;9.104;2023-03-31T15:04:42;1.63;;;0.40;;
75634;SDS011;64227;48.724;9.104;2023-03-31T15:09:35;1.50;;;0.30;;
75634;SDS011;64227;48.724;9.104;2023-03-31T15:12:02;1.42;;;0.30;;
75634;SDS011;64227;48.724;9.104;2023-03-31T15:14:30;1.42;;;0.30;;
75634;SDS011;64227;48.724;9.104;2023-03-31T15:16:58;1.58;;;0.28;;
75634;SDS011;64227;48.724;9.104;2023-03-31T15:19:26;0.63;;;0.30;;
75634;SDS011;64227;48.724;9.104;2023-03-31T15:21:57;3.15;;;0.40;;
75634;SDS011;64227;48.724;9.104;2023-03-31T15:24:29;0.75;;;0.20;;
75634;SDS011;64227;48.724;9.104;2023-03-31T15:27:02;0.95;;;0.20;;
75634;SDS011;64227;48.724;9.104;2023-03-31T15:29:42;1.35;;;0.28;;
75634;SDS011;64227;48.724;9.104;2023-03-31T15:32:25;0.85;;;0.40;;
75634;SDS011;64227;48.724;9.104;2023-03-31T15:34:53;1.05;;;0.30;;
75634;SDS011;64227;48.724;9.104;2023-03-31T15:37:23;1.17;;;0.32;;
75634;SDS011;64227;48.724;9.104;2023-03-31T15:39:53;0.45;;;0.22;;
75634;SDS011;64227;48.724;9.104;2023-03-31T15:42:19;0.73;;;0.20;;
75634;SDS011;64227;48.724;9.104;2023-03-31T15:44:45;1.92;;;0.30;;
75634;SDS011;64227;48.724;9.104;2023-03-31T15:47:15;1.15;;;0.40;;
75634;SDS011;64227;48.724;9.104;2023-03-31T15:49:46;4.90;;;0.52;;
75634;SDS011;64227;48.724;9.104;2023-03-31T15:52:35;5.07;;;0.60;;
75634;SDS011;64227;48.724;9.104;2023-03-31T15:55:23;1.17;;;0.40;;
75634;SDS011;64227;48.724;9.104;2023-03-31T15:57:56;3.38;;;0.43;;
75634;SDS011;64227;48.724;9.104;2023-03-31T16:03:04;2.67;;;0.50;;
75634;SDS011;64227;48.724;9.104;2023-03-31T16:05:39;0.90;;;0.40;;
75634;SDS011;64227;48.724;9.104;2023-03-31T16:08:11;2.50;;;0.32;;
75634;SDS011;64227;48.724;9.104;2023-03-31T16:10:38;1.88;;;0.40;;
75634;SDS011;64227;48.724;9.104;2023-03-31T16:13:05;3.10;;;0.82;;
75634;SDS011;64227;48.724;9.104;2023-03-31T16:17:59;0.93;;;0.43;;
75634;SDS011;64227;48.724;9.104;2023-03-31T16:20:36;9.23;;;2.95;;
75634;SDS011;64227;48.724;9.104;2023-03-31T16:23:12;2.03;;;0.47;;
75634;SDS011;64227;48.724;9.104;2023-03-31T16:25:41;3.33;;;0.80;;
75634;SDS011;64227;48.724;9.104;2023-03-31T16:28:06;1.23;;;0.32;;
75634;SDS011;64227;48.724;9.104;2023-03-31T16:30:40;0.77;;;0.30;;
75634;SDS011;64227;48.724;9.104;2023-03-31T16:33:07;1.17;;;0.40;;
75634;SDS011;64227;48.724;9.104;2023-03-31T16:35:41;0.90;;;0.30;;
75634;SDS011;64227;48.724;9.104;2023-03-31T16:38:08;2.25;;;0.50;;
75634;SDS011;64227;48.724;9.104;2023-03-31T16:40:36;0.63;;;0.10;;
75634;SDS011;64227;48.724;9.104;2023-03-31T16:43:13;0.20;;;0.10;;
75634;SDS011;64227;48.724;9.104;2023-03-31T16:45:49;0.10;;;0.10;;
75634;SDS011;64227;48.724;9.104;2023-03-31T16:48:16;0.20;;;0.17;;
75634;SDS011;64227;48.724;9.104;2023-03-31T16:50:46;1.10;;;0.40;;
75634;SDS011;64227;48.724;9.104;2023-03-31T16:53:13;0.47;;;0.15;;
75634;SDS011;64227;48.724;9.104;2023-03-31T16:55:39;2.17;;;0.20;;
75634;SDS011;64227;48.724;9.104;2023-03-31T16:58:04;2.05;;;0.30;;
75634;SDS011;64227;48.724;9.104;2023-03-31T17:00:30;1.98;;;0.38;;
75634;SDS011;64227;48.724;9.104;2023-03-31T17:02:58;1.20;;;0.20;;
75634;SDS011;64227;48.724;9.104;2023-03-31T17:05:25;1.00;;;0.10;;
75634;SDS011;64227;48.724;9.104;2023-03-31T17:07:50;0.32;;;0.10;;
75634;SDS011;64227;48.724;9.104;2023-03-31T17:10:16;0.40;;;0.13;;
75634;SDS011;64227;48.724;9.104;2023-03-31T17:12:42;3.45;;;0.30;;
75634;SDS011;64227;48.724;9.104;2023-03-31T17:15:07;0.52;;;0.20;;
75634;SDS011;64227;48.724;9.104;2023-03-31T17:17:33;2.60;;;0.30;;
75634;SDS011;64227;48.724;9.104;2023-03-31T17:19:58;1.92;;;0.30;;
75634;SDS011;64227;48.724;9.104;2023-03-31T17:22:24;1.27;;;0.25;;
75634;SDS011;64227;48.724;9.104;2023-03-31T17:24:49;1.00;;;0.25;;
75634;SDS011;64227;48.724;9.104;2023-03-31T17:27:20;0.95;;;0.20;;
75634;SDS011;64227;48.724;9.104;2023-03-31T17:29:46;0.77;;;0.25;;
75634;SDS011;64227;48.724;9.104;2023-03-31T17:32:11;2.13;;;0.20;;
75634;SDS011;64227;48.724;9.104;2023-03-31T17:34:38;0.98;;;0.45;;
75634;SDS011;64227;48.724;9.104;2023-03-31T17:37:04;0.85;;;0.30;;
75634;SDS011;64227;48.724;9.104;2023-03-31T17:39:29;1.05;;;0.30;;
75634;SDS011;64227;48.724;9.104;2023-03-31T17:41:55;2.42;;;0.40;;
75634;SDS011;64227;48.724;9.104;2023-03-31T17:44:21;1.38;;;0.30;;
75634;SDS011;64227;48.724;9.104;2023-03-31T17:46:46;1.73;;;0.32;;
75634;SDS011;64227;48.724;9.104;2023-03-31T17:49:12;1.02;;;0.40;;
75634;SDS011;64227;48.724;9.104;2023-03-31T17:51:37;0.30;;;0.30;;
75634;SDS011;64227;48.724;9.104;2023-03-31T17:54:02;2.83;;;0.30;;